COOK1: Arkansas River Nr Coolidge, KS

                                SHEF ID:       COOK1     ARKANSAS R NR COOLIDGE, KS
STATION TYPE:
Regulating: Stage = 8.00, Flow = 2050

PRECIP STAGE STAGE(2) RIV-FLOW WTR-TEMP CONDUCT BAT-LOAD
in ft ft cfs F umho/cm volt
Ccp-Rev Ccp-Rev Ccp-Rev Ccp-Rev Ccp-Rev Ccp-Rev Ccp-Rev
(America/Chicago)
07/04 00:00 0.00 2.34 2.48 41 71.76 6448 12.95
07/04 01:00 0.00 2.33 2.47 41 70.48 6440 12.89
07/04 02:00 0.00 2.32 2.47 40 69.57 6476 12.89
07/04 03:00 0.00 2.31 2.46 39 68.59 6529 12.89
07/04 04:00 0.00 2.31 2.47 39 67.60 6548 12.89
07/04 05:00 0.00 2.31 2.47 39 66.43 6541 12.83
07/04 06:00 0.00 2.30 2.47 39 65.59 6556 12.83
07/04 07:00 0.00 2.33 2.48 41 64.62 6566 12.77
07/04 08:00 0.00 2.32 2.48 40 64.26 6565 12.83
07/04 09:00 0.00 2.34 2.49 41 64.74 6494 13.07
07/04 10:00 0.00 2.34 2.49 41 65.82 6440 13.30
07/04 11:00 0.00 2.35 2.51 42 68.52 6394 13.65
07/04 12:00 0.00 2.37 2.52 44 72.05 6318 13.71
07/04 13:00 0.00 2.38 2.53 44 75.54 6262 13.77
07/04 14:00 0.00 2.37 2.53 44 78.46 6224 13.83
07/04 15:00 0.00 2.40 2.54 46 80.47 6199 13.83
07/04 16:00 0.00 2.39 2.54 45 81.93 6179 13.71
07/04 17:00 0.00 2.39 2.54 45 82.63 6161 13.48
07/04 18:00 0.00 2.39 2.53 45 82.27 6165 13.36
07/04 19:00 0.00 2.39 2.53 45 80.91 6154 13.24
07/04 20:00 0.00 2.39 2.53 45 78.58 6127 13.18
07/04 21:00 0.00 2.37 2.51 44 76.39 6095 13.07
07/04 22:00 0.00 2.37 2.51 44 74.79 6138 13.00
07/04 23:00 ---- ---- ---- ---- ---- ---- ----
Data processed at Fri 05Jul2024 04:30 GMT

Parsing this webpage?

Checkout our new Data API! CWMSDataAPI (CDA)

Timeseries IDs (TSIDs)

TSIDs used from left to right in the data table
COOL.Precip-Inc.Total.1Hour.1Hour.Ccp-Rev
COOL.Stage.Inst.1Hour.0.Ccp-Rev
COOL.Stage-Alt.Inst.1Hour.0.Ccp-Rev
COOL.Flow.Inst.1Hour.0.Ccp-Rev
COOL.Temp-Water.Inst.1Hour.0.Ccp-Rev
COOL.Cond.Inst.1Hour.0.Ccp-Rev
COOL.Volt-Battery Load.Inst.1Hour.0.Ccp-Rev

                            

All information presented herein is the property of the government of the United States of America and may be revised or deleted at any time without prior notice. Dissemination of this information without the expressed written consent of the Public Affairs Office, Tulsa District U.S. Army Corps of Engineers is strictly prohibited. These data are gathered electronically and, as presented, have NOT undergone any form of quality control. These data are NOT guaranteed to be valid or correct.